DMAD Reservoir




Date Reservoir Capacity (AF) Hourly Avg. Stream Stage (ft) Reservoir Outflow (cfs) Reservoir Gate 1 Height (ft) Reservoir Gate 2 Height (ft) Reservoir Gate 3 Height (ft) Stream Flow (cfs) Stream Conductivity (ppm) Battery Voltage (V) Reservoir Height (ft) Canal Flow (cfs) Canal Height (ft) Canal Flow 2 (ft)
07/01/2017 4,477 190 0.50 0.00 2.00 0.00 0.00 13.38 59.25 0.00 0.00
07/02/2017 4,336 188 0.50 0.00 2.00 0.00 0.00 13.35 59.06 0.00 0.00
07/03/2017 4,336 186 0.50 0.00 1.97 0.00 0.00 13.32 59.06 0.00 0.00
07/04/2017 4,402 148 0.50 0.00 1.45 0.00 0.00 13.27 59.15 0.00 0.00
07/05/2017 4,506 82 0.50 0.00 0.57 0.00 0.00 13.27 59.29 0.00 0.00
07/06/2017 4,536 77 0.50 0.00 0.50 0.00 0.00 13.30 59.33 0.00 0.00
07/07/2017 4,388 101 0.50 0.00 0.83 0.00 0.00 13.16 59.13 0.00 0.00
07/08/2017 4,291 130 0.50 0.00 1.22 0.00 0.00 13.18 59.00 0.00 0.00
07/09/2017 4,232 135 0.50 0.00 1.30 0.00 0.00 13.26 58.92 0.00 0.00
07/10/2017 4,284 136 0.50 0.00 1.30 0.00 0.00 13.27 58.99 0.00 0.00
07/11/2017 4,350 137 0.50 0.00 1.30 0.00 0.00 13.25 59.08 0.00 0.00
07/12/2017 4,499 138 0.50 0.00 1.30 0.00 0.00 13.29 59.28 0.00 0.00
07/13/2017 4,625 118 0.50 0.00 1.02 0.00 0.00 13.17 59.45 0.00 0.00
07/14/2017 4,677 111 0.50 0.00 0.92 0.00 0.00 13.23 59.52 0.00 0.00
07/15/2017 4,856 81 0.50 0.00 0.53 0.00 0.00 13.28 59.76 0.00 0.00
07/16/2017 4,997 54 0.50 0.00 0.18 0.00 0.00 13.15 59.95 0.00 0.00
07/17/2017 5,260 24 0.30 0.00 0.00 0.00 0.00 13.13 60.26 0.00 0.00
07/18/2017 5,644 0 0.00 0.00 0.00 0.00 0.00 13.32 60.70 0.00 0.00
07/19/2017 5,861 13 0.00 0.00 0.16 0.00 0.00 13.18 60.95 0.00 0.00
07/20/2017 6,018 77 0.00 0.00 0.93 0.00 0.00 12.78 61.13 0.00 0.00
07/21/2017 5,914 136 0.00 0.00 1.67 0.00 0.00 12.92 61.01 0.00 0.00
07/22/2017 5,774 136 0.00 0.00 1.67 0.00 0.00 13.31 60.85 0.00 0.00
07/23/2017 5,861 82 0.00 0.00 1.00 0.00 0.00 12.70 60.95 0.00 0.00
07/24/2017 5,644 86 0.00 0.00 1.06 0.00 0.00 13.11 60.70 0.00 0.00
07/25/2017 5,644 49 0.00 0.00 0.60 0.00 0.00 12.92 60.70 0.00 0.00
07/26/2017 5,731 26 0.00 0.00 0.32 0.00 0.00 13.35 60.80 0.00 0.00
07/27/2017 5,644 122 0.00 0.00 1.50 0.00 0.00 13.20 60.70 0.00 0.00
07/28/2017 5,522 146 0.00 0.00 1.81 0.00 0.00 13.16 60.56 0.00 0.00
07/29/2017 5,435 235 0.00 0.00 2.97 0.00 0.00 13.12 60.46 0.00 0.00
07/30/2017 5,217 233 0.00 0.00 2.97 0.00 0.00 13.35 60.21 0.00 0.00
07/31/2017 5,078 231 0.00 0.00 2.97 0.00 0.00 13.30 60.05 0.00 0.00
Average 116 0.00 0.00
Maximum 235 0.00 0.00
Minimum 0 0.00 0.00
Total Volume (AF) 7,155 0.00 0.00